sensor_id;sensor_type;location;lat;lon;timestamp;P1;durP1;ratioP1;P2;durP2;ratioP2
20865;SDS011;10593;48.398;10.698;2022-08-19T00:01:47;2.20;;;2.00;;
20865;SDS011;10593;48.398;10.698;2022-08-19T00:04:17;1.90;;;1.80;;
20865;SDS011;10593;48.398;10.698;2022-08-19T00:06:46;1.80;;;1.70;;
20865;SDS011;10593;48.398;10.698;2022-08-19T00:09:13;1.67;;;1.57;;
20865;SDS011;10593;48.398;10.698;2022-08-19T00:11:42;1.50;;;1.40;;
20865;SDS011;10593;48.398;10.698;2022-08-19T00:14:09;1.50;;;1.40;;
20865;SDS011;10593;48.398;10.698;2022-08-19T00:16:39;5.43;;;1.87;;
20865;SDS011;10593;48.398;10.698;2022-08-19T00:19:06;1.70;;;1.60;;
20865;SDS011;10593;48.398;10.698;2022-08-19T00:21:33;3.73;;;1.50;;
20865;SDS011;10593;48.398;10.698;2022-08-19T00:24:04;2.77;;;2.00;;
20865;SDS011;10593;48.398;10.698;2022-08-19T00:26:35;1.90;;;1.70;;
20865;SDS011;10593;48.398;10.698;2022-08-19T00:29:02;1.80;;;1.70;;
20865;SDS011;10593;48.398;10.698;2022-08-19T00:31:29;1.70;;;1.60;;
20865;SDS011;10593;48.398;10.698;2022-08-19T00:33:56;2.17;;;2.00;;
20865;SDS011;10593;48.398;10.698;2022-08-19T00:36:22;1.73;;;1.63;;
20865;SDS011;10593;48.398;10.698;2022-08-19T00:38:47;1.70;;;1.60;;
20865;SDS011;10593;48.398;10.698;2022-08-19T00:41:16;1.80;;;1.70;;
20865;SDS011;10593;48.398;10.698;2022-08-19T00:46:37;2.17;;;1.97;;
20865;SDS011;10593;48.398;10.698;2022-08-19T00:49:07;2.53;;;2.33;;
20865;SDS011;10593;48.398;10.698;2022-08-19T00:51:39;2.33;;;2.03;;
20865;SDS011;10593;48.398;10.698;2022-08-19T00:54:09;2.50;;;2.10;;
20865;SDS011;10593;48.398;10.698;2022-08-19T00:56:35;2.13;;;1.93;;
20865;SDS011;10593;48.398;10.698;2022-08-19T00:59:02;2.17;;;2.07;;
20865;SDS011;10593;48.398;10.698;2022-08-19T01:01:34;2.30;;;2.10;;
20865;SDS011;10593;48.398;10.698;2022-08-19T01:04:03;2.17;;;2.00;;
20865;SDS011;10593;48.398;10.698;2022-08-19T01:06:29;2.00;;;1.90;;
20865;SDS011;10593;48.398;10.698;2022-08-19T01:08:57;2.47;;;2.37;;
20865;SDS011;10593;48.398;10.698;2022-08-19T01:11:24;2.50;;;2.40;;
20865;SDS011;10593;48.398;10.698;2022-08-19T01:13:53;2.67;;;2.47;;
20865;SDS011;10593;48.398;10.698;2022-08-19T01:16:20;2.90;;;2.60;;
20865;SDS011;10593;48.398;10.698;2022-08-19T01:18:49;3.43;;;3.23;;
20865;SDS011;10593;48.398;10.698;2022-08-19T01:21:37;4.40;;;4.00;;
20865;SDS011;10593;48.398;10.698;2022-08-19T01:24:09;4.37;;;3.97;;
20865;SDS011;10593;48.398;10.698;2022-08-19T01:26:42;5.00;;;4.60;;
20865;SDS011;10593;48.398;10.698;2022-08-19T01:29:10;4.80;;;4.40;;
20865;SDS011;10593;48.398;10.698;2022-08-19T01:31:36;6.07;;;5.57;;
20865;SDS011;10593;48.398;10.698;2022-08-19T01:34:04;5.90;;;5.50;;
20865;SDS011;10593;48.398;10.698;2022-08-19T01:36:35;5.10;;;4.70;;
20865;SDS011;10593;48.398;10.698;2022-08-19T01:39:12;5.60;;;5.17;;
20865;SDS011;10593;48.398;10.698;2022-08-19T01:41:49;5.60;;;5.20;;
20865;SDS011;10593;48.398;10.698;2022-08-19T01:44:19;6.40;;;5.90;;
20865;SDS011;10593;48.398;10.698;2022-08-19T01:46:49;6.93;;;6.33;;
20865;SDS011;10593;48.398;10.698;2022-08-19T01:49:17;7.07;;;6.57;;
20865;SDS011;10593;48.398;10.698;2022-08-19T01:51:46;7.20;;;6.60;;
20865;SDS011;10593;48.398;10.698;2022-08-19T01:54:14;7.47;;;6.23;;
20865;SDS011;10593;48.398;10.698;2022-08-19T01:56:42;6.93;;;6.43;;
20865;SDS011;10593;48.398;10.698;2022-08-19T01:59:14;8.20;;;7.50;;
20865;SDS011;10593;48.398;10.698;2022-08-19T02:01:43;7.80;;;7.00;;
20865;SDS011;10593;48.398;10.698;2022-08-19T02:04:09;7.43;;;6.83;;
20865;SDS011;10593;48.398;10.698;2022-08-19T02:06:36;7.83;;;7.23;;
20865;SDS011;10593;48.398;10.698;2022-08-19T02:09:03;8.03;;;7.40;;
20865;SDS011;10593;48.398;10.698;2022-08-19T02:11:32;8.03;;;7.40;;
20865;SDS011;10593;48.398;10.698;2022-08-19T02:14:01;8.77;;;8.13;;
20865;SDS011;10593;48.398;10.698;2022-08-19T02:16:31;8.50;;;7.87;;
20865;SDS011;10593;48.398;10.698;2022-08-19T02:18:58;8.30;;;7.60;;
20865;SDS011;10593;48.398;10.698;2022-08-19T02:21:27;8.40;;;7.80;;
20865;SDS011;10593;48.398;10.698;2022-08-19T02:23:54;9.17;;;8.47;;
20865;SDS011;10593;48.398;10.698;2022-08-19T02:26:20;9.40;;;8.70;;
20865;SDS011;10593;48.398;10.698;2022-08-19T02:28:47;9.13;;;8.43;;
20865;SDS011;10593;48.398;10.698;2022-08-19T02:31:14;9.07;;;8.37;;
20865;SDS011;10593;48.398;10.698;2022-08-19T02:33:44;9.03;;;8.33;;
20865;SDS011;10593;48.398;10.698;2022-08-19T02:36:11;10.03;;;9.23;;
20865;SDS011;10593;48.398;10.698;2022-08-19T02:38:39;8.80;;;8.10;;
20865;SDS011;10593;48.398;10.698;2022-08-19T02:41:06;10.00;;;9.10;;
20865;SDS011;10593;48.398;10.698;2022-08-19T02:43:40;8.73;;;8.03;;
20865;SDS011;10593;48.398;10.698;2022-08-19T02:46:15;9.33;;;8.63;;
20865;SDS011;10593;48.398;10.698;2022-08-19T02:48:50;9.57;;;8.77;;
20865;SDS011;10593;48.398;10.698;2022-08-19T02:51:20;9.90;;;9.10;;
20865;SDS011;10593;48.398;10.698;2022-08-19T02:53:52;9.47;;;8.67;;
20865;SDS011;10593;48.398;10.698;2022-08-19T02:56:18;9.20;;;8.40;;
20865;SDS011;10593;48.398;10.698;2022-08-19T02:58:45;10.03;;;9.23;;
20865;SDS011;10593;48.398;10.698;2022-08-19T03:01:19;9.63;;;8.83;;
20865;SDS011;10593;48.398;10.698;2022-08-19T03:03:49;9.30;;;8.50;;
20865;SDS011;10593;48.398;10.698;2022-08-19T03:06:16;10.37;;;9.57;;
20865;SDS011;10593;48.398;10.698;2022-08-19T03:08:44;9.60;;;8.80;;
20865;SDS011;10593;48.398;10.698;2022-08-19T03:13:47;10.97;;;10.07;;
20865;SDS011;10593;48.398;10.698;2022-08-19T03:16:23;10.97;;;10.07;;
20865;SDS011;10593;48.398;10.698;2022-08-19T03:18:52;10.87;;;9.97;;
20865;SDS011;10593;48.398;10.698;2022-08-19T03:21:24;10.80;;;9.90;;
20865;SDS011;10593;48.398;10.698;2022-08-19T03:23:56;11.07;;;10.17;;
20865;SDS011;10593;48.398;10.698;2022-08-19T03:26:25;11.03;;;10.13;;
20865;SDS011;10593;48.398;10.698;2022-08-19T03:28:51;10.13;;;9.33;;
20865;SDS011;10593;48.398;10.698;2022-08-19T03:31:18;10.73;;;9.83;;
20865;SDS011;10593;48.398;10.698;2022-08-19T03:33:47;11.77;;;10.57;;
20865;SDS011;10593;48.398;10.698;2022-08-19T03:36:17;10.57;;;9.67;;
20865;SDS011;10593;48.398;10.698;2022-08-19T03:38:49;9.90;;;9.03;;
20865;SDS011;10593;48.398;10.698;2022-08-19T03:41:22;9.87;;;9.07;;
20865;SDS011;10593;48.398;10.698;2022-08-19T03:44:02;10.13;;;9.33;;
20865;SDS011;10593;48.398;10.698;2022-08-19T03:46:30;9.37;;;8.57;;
20865;SDS011;10593;48.398;10.698;2022-08-19T03:48:59;10.80;;;9.90;;
20865;SDS011;10593;48.398;10.698;2022-08-19T03:51:34;9.70;;;8.83;;
20865;SDS011;10593;48.398;10.698;2022-08-19T03:54:04;9.37;;;8.47;;
20865;SDS011;10593;48.398;10.698;2022-08-19T03:56:33;9.23;;;8.53;;
20865;SDS011;10593;48.398;10.698;2022-08-19T03:59:02;9.47;;;8.67;;
20865;SDS011;10593;48.398;10.698;2022-08-19T04:01:30;10.03;;;9.17;;
20865;SDS011;10593;48.398;10.698;2022-08-19T04:03:56;9.20;;;8.40;;
20865;SDS011;10593;48.398;10.698;2022-08-19T04:06:24;8.37;;;7.67;;
20865;SDS011;10593;48.398;10.698;2022-08-19T04:08:57;8.47;;;7.80;;
20865;SDS011;10593;48.398;10.698;2022-08-19T04:11:27;8.40;;;7.70;;
20865;SDS011;10593;48.398;10.698;2022-08-19T04:14:22;8.20;;;7.40;;
20865;SDS011;10593;48.398;10.698;2022-08-19T04:16:51;7.40;;;6.80;;
20865;SDS011;10593;48.398;10.698;2022-08-19T04:19:18;7.23;;;6.37;;
20865;SDS011;10593;48.398;10.698;2022-08-19T04:21:45;8.27;;;7.47;;
20865;SDS011;10593;48.398;10.698;2022-08-19T04:24:15;6.83;;;6.33;;
20865;SDS011;10593;48.398;10.698;2022-08-19T04:26:42;7.57;;;6.97;;
20865;SDS011;10593;48.398;10.698;2022-08-19T04:29:09;7.20;;;6.60;;
20865;SDS011;10593;48.398;10.698;2022-08-19T04:31:43;6.50;;;6.00;;
20865;SDS011;10593;48.398;10.698;2022-08-19T04:34:11;6.27;;;5.83;;
20865;SDS011;10593;48.398;10.698;2022-08-19T04:36:40;6.50;;;6.00;;
20865;SDS011;10593;48.398;10.698;2022-08-19T04:39:14;6.60;;;6.10;;
20865;SDS011;10593;48.398;10.698;2022-08-19T04:41:44;5.67;;;5.27;;
20865;SDS011;10593;48.398;10.698;2022-08-19T04:44:32;6.23;;;5.73;;
20865;SDS011;10593;48.398;10.698;2022-08-19T04:47:00;6.57;;;6.00;;
20865;SDS011;10593;48.398;10.698;2022-08-19T04:49:30;6.00;;;5.50;;
20865;SDS011;10593;48.398;10.698;2022-08-19T04:51:56;6.47;;;5.93;;
20865;SDS011;10593;48.398;10.698;2022-08-19T04:54:22;6.93;;;6.40;;
20865;SDS011;10593;48.398;10.698;2022-08-19T04:56:51;6.93;;;6.33;;
20865;SDS011;10593;48.398;10.698;2022-08-19T04:59:18;7.33;;;6.73;;
20865;SDS011;10593;48.398;10.698;2022-08-19T05:01:45;7.03;;;6.43;;
20865;SDS011;10593;48.398;10.698;2022-08-19T05:04:15;7.93;;;7.33;;
20865;SDS011;10593;48.398;10.698;2022-08-19T05:06:45;7.40;;;6.80;;
20865;SDS011;10593;48.398;10.698;2022-08-19T05:09:14;7.53;;;6.93;;
20865;SDS011;10593;48.398;10.698;2022-08-19T05:11:42;8.43;;;7.73;;
20865;SDS011;10593;48.398;10.698;2022-08-19T05:14:09;7.63;;;7.03;;
20865;SDS011;10593;48.398;10.698;2022-08-19T05:16:37;7.90;;;7.30;;
20865;SDS011;10593;48.398;10.698;2022-08-19T05:19:04;7.73;;;7.13;;
20865;SDS011;10593;48.398;10.698;2022-08-19T05:21:48;7.63;;;7.03;;
20865;SDS011;10593;48.398;10.698;2022-08-19T05:24:32;7.93;;;7.33;;
20865;SDS011;10593;48.398;10.698;2022-08-19T05:26:59;8.17;;;7.57;;
20865;SDS011;10593;48.398;10.698;2022-08-19T05:29:27;7.80;;;7.10;;
20865;SDS011;10593;48.398;10.698;2022-08-19T05:31:56;8.83;;;8.13;;
20865;SDS011;10593;48.398;10.698;2022-08-19T05:34:23;9.80;;;8.90;;
20865;SDS011;10593;48.398;10.698;2022-08-19T05:36:52;9.17;;;8.37;;
20865;SDS011;10593;48.398;10.698;2022-08-19T05:39:22;8.50;;;7.80;;
20865;SDS011;10593;48.398;10.698;2022-08-19T05:41:52;10.00;;;9.07;;
20865;SDS011;10593;48.398;10.698;2022-08-19T05:44:25;10.37;;;9.47;;
20865;SDS011;10593;48.398;10.698;2022-08-19T05:46:57;10.57;;;9.67;;
20865;SDS011;10593;48.398;10.698;2022-08-19T05:49:24;10.53;;;9.73;;
20865;SDS011;10593;48.398;10.698;2022-08-19T05:51:52;11.13;;;10.13;;
20865;SDS011;10593;48.398;10.698;2022-08-19T05:54:20;11.07;;;10.17;;
20865;SDS011;10593;48.398;10.698;2022-08-19T05:56:48;11.80;;;10.70;;
20865;SDS011;10593;48.398;10.698;2022-08-19T05:59:16;11.07;;;10.07;;
20865;SDS011;10593;48.398;10.698;2022-08-19T06:01:46;10.27;;;9.37;;
20865;SDS011;10593;48.398;10.698;2022-08-19T06:04:17;9.70;;;8.90;;
20865;SDS011;10593;48.398;10.698;2022-08-19T06:06:45;10.33;;;9.43;;
20865;SDS011;10593;48.398;10.698;2022-08-19T06:09:16;9.73;;;8.83;;
20865;SDS011;10593;48.398;10.698;2022-08-19T06:11:44;9.13;;;8.43;;
20865;SDS011;10593;48.398;10.698;2022-08-19T06:14:14;10.43;;;9.63;;
20865;SDS011;10593;48.398;10.698;2022-08-19T06:16:45;9.97;;;8.97;;
20865;SDS011;10593;48.398;10.698;2022-08-19T06:19:14;10.40;;;9.50;;
20865;SDS011;10593;48.398;10.698;2022-08-19T06:21:42;9.47;;;8.70;;
20865;SDS011;10593;48.398;10.698;2022-08-19T06:24:12;9.10;;;8.40;;
20865;SDS011;10593;48.398;10.698;2022-08-19T06:26:42;9.13;;;8.43;;
20865;SDS011;10593;48.398;10.698;2022-08-19T06:29:11;8.97;;;8.17;;
20865;SDS011;10593;48.398;10.698;2022-08-19T06:31:42;10.17;;;9.37;;
20865;SDS011;10593;48.398;10.698;2022-08-19T06:34:11;9.97;;;9.07;;
20865;SDS011;10593;48.398;10.698;2022-08-19T06:36:41;10.23;;;9.33;;
20865;SDS011;10593;48.398;10.698;2022-08-19T06:39:19;10.30;;;9.30;;
20865;SDS011;10593;48.398;10.698;2022-08-19T06:41:52;9.73;;;8.83;;
20865;SDS011;10593;48.398;10.698;2022-08-19T06:44:22;10.87;;;9.87;;
20865;SDS011;10593;48.398;10.698;2022-08-19T06:46:51;11.10;;;10.10;;
20865;SDS011;10593;48.398;10.698;2022-08-19T06:49:17;10.97;;;9.97;;
20865;SDS011;10593;48.398;10.698;2022-08-19T06:51:44;11.07;;;10.07;;
20865;SDS011;10593;48.398;10.698;2022-08-19T06:54:16;11.53;;;10.43;;
20865;SDS011;10593;48.398;10.698;2022-08-19T06:56:44;11.53;;;10.53;;
20865;SDS011;10593;48.398;10.698;2022-08-19T06:59:12;11.07;;;10.07;;
20865;SDS011;10593;48.398;10.698;2022-08-19T07:01:46;11.53;;;10.47;;
20865;SDS011;10593;48.398;10.698;2022-08-19T07:04:17;12.83;;;11.63;;
20865;SDS011;10593;48.398;10.698;2022-08-19T07:06:47;12.47;;;11.30;;
20865;SDS011;10593;48.398;10.698;2022-08-19T07:09:14;12.10;;;10.90;;
20865;SDS011;10593;48.398;10.698;2022-08-19T07:11:46;12.43;;;11.33;;
20865;SDS011;10593;48.398;10.698;2022-08-19T07:14:15;12.83;;;11.63;;
20865;SDS011;10593;48.398;10.698;2022-08-19T07:16:43;12.67;;;11.33;;
20865;SDS011;10593;48.398;10.698;2022-08-19T07:19:11;11.87;;;10.83;;
20865;SDS011;10593;48.398;10.698;2022-08-19T07:21:38;12.50;;;11.40;;
20865;SDS011;10593;48.398;10.698;2022-08-19T07:24:04;12.40;;;11.30;;
20865;SDS011;10593;48.398;10.698;2022-08-19T07:26:31;11.67;;;10.60;;
20865;SDS011;10593;48.398;10.698;2022-08-19T07:29:03;11.60;;;10.47;;
20865;SDS011;10593;48.398;10.698;2022-08-19T07:31:30;11.63;;;10.53;;
20865;SDS011;10593;48.398;10.698;2022-08-19T07:33:56;11.23;;;10.23;;
20865;SDS011;10593;48.398;10.698;2022-08-19T07:36:23;10.17;;;9.33;;
20865;SDS011;10593;48.398;10.698;2022-08-19T07:38:56;10.83;;;9.83;;
20865;SDS011;10593;48.398;10.698;2022-08-19T07:41:24;10.10;;;9.30;;
20865;SDS011;10593;48.398;10.698;2022-08-19T07:43:54;9.93;;;8.93;;
20865;SDS011;10593;48.398;10.698;2022-08-19T07:46:20;8.70;;;7.93;;
20865;SDS011;10593;48.398;10.698;2022-08-19T07:48:47;8.67;;;7.97;;
20865;SDS011;10593;48.398;10.698;2022-08-19T07:51:17;8.40;;;7.63;;
20865;SDS011;10593;48.398;10.698;2022-08-19T07:53:46;8.43;;;7.73;;
20865;SDS011;10593;48.398;10.698;2022-08-19T07:56:15;9.80;;;8.80;;
20865;SDS011;10593;48.398;10.698;2022-08-19T07:58:44;11.03;;;10.03;;
20865;SDS011;10593;48.398;10.698;2022-08-19T08:01:13;11.43;;;10.33;;
20865;SDS011;10593;48.398;10.698;2022-08-19T08:03:47;12.33;;;11.17;;
20865;SDS011;10593;48.398;10.698;2022-08-19T08:06:33;12.13;;;10.97;;
20865;SDS011;10593;48.398;10.698;2022-08-19T08:09:19;12.17;;;11.07;;
20865;SDS011;10593;48.398;10.698;2022-08-19T08:11:53;12.23;;;11.10;;
20865;SDS011;10593;48.398;10.698;2022-08-19T08:14:29;11.63;;;10.63;;
20865;SDS011;10593;48.398;10.698;2022-08-19T08:17:00;12.60;;;11.50;;
20865;SDS011;10593;48.398;10.698;2022-08-19T08:19:27;11.57;;;10.37;;
20865;SDS011;10593;48.398;10.698;2022-08-19T08:21:54;11.20;;;10.20;;
20865;SDS011;10593;48.398;10.698;2022-08-19T08:24:24;11.03;;;10.03;;
20865;SDS011;10593;48.398;10.698;2022-08-19T08:26:52;10.73;;;9.83;;
20865;SDS011;10593;48.398;10.698;2022-08-19T08:29:18;9.33;;;8.47;;
20865;SDS011;10593;48.398;10.698;2022-08-19T08:31:44;9.83;;;8.93;;
20865;SDS011;10593;48.398;10.698;2022-08-19T08:34:12;9.43;;;8.63;;
20865;SDS011;10593;48.398;10.698;2022-08-19T08:36:40;10.13;;;9.27;;
20865;SDS011;10593;48.398;10.698;2022-08-19T08:39:10;10.87;;;9.70;;
20865;SDS011;10593;48.398;10.698;2022-08-19T08:41:53;9.57;;;8.77;;
20865;SDS011;10593;48.398;10.698;2022-08-19T08:47:18;10.33;;;9.33;;
20865;SDS011;10593;48.398;10.698;2022-08-19T08:52:22;11.30;;;10.30;;
20865;SDS011;10593;48.398;10.698;2022-08-19T08:55:09;10.37;;;9.40;;
20865;SDS011;10593;48.398;10.698;2022-08-19T09:00:38;11.07;;;10.07;;
20865;SDS011;10593;48.398;10.698;2022-08-19T09:03:21;10.50;;;9.60;;
20865;SDS011;10593;48.398;10.698;2022-08-19T09:06:00;11.07;;;10.13;;
20865;SDS011;10593;48.398;10.698;2022-08-19T09:11:19;11.90;;;10.80;;
20865;SDS011;10593;48.398;10.698;2022-08-19T09:16:59;12.27;;;11.07;;
20865;SDS011;10593;48.398;10.698;2022-08-19T09:19:28;12.90;;;11.70;;
20865;SDS011;10593;48.398;10.698;2022-08-19T09:21:55;13.10;;;11.87;;
20865;SDS011;10593;48.398;10.698;2022-08-19T09:24:21;13.50;;;12.30;;
20865;SDS011;10593;48.398;10.698;2022-08-19T09:26:47;14.03;;;12.73;;
20865;SDS011;10593;48.398;10.698;2022-08-19T09:29:12;14.20;;;12.90;;
20865;SDS011;10593;48.398;10.698;2022-08-19T09:31:39;14.40;;;13.10;;
20865;SDS011;10593;48.398;10.698;2022-08-19T09:34:04;13.83;;;12.53;;
20865;SDS011;10593;48.398;10.698;2022-08-19T09:36:30;14.27;;;12.97;;
20865;SDS011;10593;48.398;10.698;2022-08-19T09:38:58;15.53;;;13.33;;
20865;SDS011;10593;48.398;10.698;2022-08-19T09:41:26;13.83;;;12.50;;
20865;SDS011;10593;48.398;10.698;2022-08-19T09:43:53;14.70;;;13.30;;
20865;SDS011;10593;48.398;10.698;2022-08-19T09:46:22;15.23;;;13.80;;
20865;SDS011;10593;48.398;10.698;2022-08-19T09:48:51;14.73;;;13.30;;
20865;SDS011;10593;48.398;10.698;2022-08-19T09:51:22;14.90;;;13.57;;
20865;SDS011;10593;48.398;10.698;2022-08-19T09:53:52;15.13;;;13.70;;
20865;SDS011;10593;48.398;10.698;2022-08-19T09:56:22;16.93;;;15.33;;
20865;SDS011;10593;48.398;10.698;2022-08-19T09:58:49;16.10;;;14.53;;
20865;SDS011;10593;48.398;10.698;2022-08-19T10:01:19;15.60;;;14.07;;
20865;SDS011;10593;48.398;10.698;2022-08-19T10:03:50;15.73;;;14.27;;
20865;SDS011;10593;48.398;10.698;2022-08-19T10:06:19;15.30;;;13.80;;
20865;SDS011;10593;48.398;10.698;2022-08-19T10:08:48;16.00;;;14.40;;
20865;SDS011;10593;48.398;10.698;2022-08-19T10:11:16;15.70;;;14.03;;
20865;SDS011;10593;48.398;10.698;2022-08-19T10:13:45;16.00;;;14.40;;
20865;SDS011;10593;48.398;10.698;2022-08-19T10:16:13;15.63;;;14.23;;
20865;SDS011;10593;48.398;10.698;2022-08-19T10:18:44;15.10;;;13.70;;
20865;SDS011;10593;48.398;10.698;2022-08-19T10:21:15;14.80;;;13.43;;
20865;SDS011;10593;48.398;10.698;2022-08-19T10:23:50;14.43;;;13.03;;
20865;SDS011;10593;48.398;10.698;2022-08-19T10:26:20;14.70;;;13.30;;
20865;SDS011;10593;48.398;10.698;2022-08-19T10:28:49;14.13;;;12.73;;
20865;SDS011;10593;48.398;10.698;2022-08-19T10:31:21;14.07;;;12.67;;
20865;SDS011;10593;48.398;10.698;2022-08-19T10:33:52;14.13;;;12.63;;
20865;SDS011;10593;48.398;10.698;2022-08-19T10:36:22;13.27;;;12.07;;
20865;SDS011;10593;48.398;10.698;2022-08-19T10:38:55;13.97;;;12.57;;
20865;SDS011;10593;48.398;10.698;2022-08-19T10:41:25;12.87;;;11.73;;
20865;SDS011;10593;48.398;10.698;2022-08-19T10:43:54;12.43;;;11.33;;
20865;SDS011;10593;48.398;10.698;2022-08-19T10:46:23;11.47;;;10.37;;
20865;SDS011;10593;48.398;10.698;2022-08-19T10:48:51;11.53;;;10.53;;
20865;SDS011;10593;48.398;10.698;2022-08-19T10:51:18;12.87;;;11.67;;
20865;SDS011;10593;48.398;10.698;2022-08-19T10:54:04;11.57;;;10.47;;
20865;SDS011;10593;48.398;10.698;2022-08-19T10:56:29;12.30;;;11.20;;
20865;SDS011;10593;48.398;10.698;2022-08-19T10:59:27;12.17;;;11.07;;
20865;SDS011;10593;48.398;10.698;2022-08-19T11:01:58;12.47;;;11.37;;
20865;SDS011;10593;48.398;10.698;2022-08-19T11:04:26;12.67;;;11.37;;
20865;SDS011;10593;48.398;10.698;2022-08-19T11:06:52;13.17;;;11.40;;
20865;SDS011;10593;48.398;10.698;2022-08-19T11:09:22;12.13;;;10.93;;
20865;SDS011;10593;48.398;10.698;2022-08-19T11:11:50;12.67;;;11.47;;
20865;SDS011;10593;48.398;10.698;2022-08-19T11:14:18;12.33;;;11.20;;
20865;SDS011;10593;48.398;10.698;2022-08-19T11:16:46;11.53;;;10.43;;
20865;SDS011;10593;48.398;10.698;2022-08-19T11:19:14;11.70;;;10.60;;
20865;SDS011;10593;48.398;10.698;2022-08-19T11:21:44;10.20;;;9.30;;
20865;SDS011;10593;48.398;10.698;2022-08-19T11:24:15;11.03;;;9.93;;
20865;SDS011;10593;48.398;10.698;2022-08-19T11:26:50;11.77;;;10.67;;
20865;SDS011;10593;48.398;10.698;2022-08-19T11:29:22;11.77;;;10.67;;
20865;SDS011;10593;48.398;10.698;2022-08-19T11:31:52;11.53;;;10.53;;
20865;SDS011;10593;48.398;10.698;2022-08-19T11:34:19;11.87;;;10.73;;
20865;SDS011;10593;48.398;10.698;2022-08-19T11:36:50;10.57;;;9.57;;
20865;SDS011;10593;48.398;10.698;2022-08-19T11:39:18;11.43;;;10.33;;
20865;SDS011;10593;48.398;10.698;2022-08-19T11:41:47;11.47;;;10.47;;
20865;SDS011;10593;48.398;10.698;2022-08-19T11:44:14;10.53;;;9.63;;
20865;SDS011;10593;48.398;10.698;2022-08-19T11:46:40;9.73;;;8.87;;
20865;SDS011;10593;48.398;10.698;2022-08-19T11:49:11;9.07;;;8.33;;
20865;SDS011;10593;48.398;10.698;2022-08-19T11:51:41;8.13;;;7.50;;
20865;SDS011;10593;48.398;10.698;2022-08-19T11:54:08;7.67;;;6.97;;
20865;SDS011;10593;48.398;10.698;2022-08-19T11:56:36;7.53;;;6.93;;
20865;SDS011;10593;48.398;10.698;2022-08-19T11:59:03;5.70;;;5.20;;
20865;SDS011;10593;48.398;10.698;2022-08-19T12:01:29;5.50;;;5.10;;
20865;SDS011;10593;48.398;10.698;2022-08-19T12:03:56;5.57;;;5.00;;
20865;SDS011;10593;48.398;10.698;2022-08-19T12:06:24;7.10;;;5.93;;
20865;SDS011;10593;48.398;10.698;2022-08-19T12:08:54;5.73;;;5.23;;
20865;SDS011;10593;48.398;10.698;2022-08-19T12:11:24;5.83;;;5.33;;
20865;SDS011;10593;48.398;10.698;2022-08-19T12:13:51;6.73;;;6.13;;
20865;SDS011;10593;48.398;10.698;2022-08-19T12:16:19;6.60;;;6.00;;
20865;SDS011;10593;48.398;10.698;2022-08-19T12:18:52;7.10;;;6.50;;
20865;SDS011;10593;48.398;10.698;2022-08-19T12:21:20;8.30;;;7.53;;
20865;SDS011;10593;48.398;10.698;2022-08-19T12:23:53;8.97;;;8.13;;
20865;SDS011;10593;48.398;10.698;2022-08-19T12:26:22;8.77;;;7.97;;
20865;SDS011;10593;48.398;10.698;2022-08-19T12:28:49;8.87;;;7.97;;
20865;SDS011;10593;48.398;10.698;2022-08-19T12:31:15;8.40;;;7.70;;
20865;SDS011;10593;48.398;10.698;2022-08-19T12:33:42;7.37;;;6.77;;
20865;SDS011;10593;48.398;10.698;2022-08-19T12:36:11;7.20;;;6.60;;
20865;SDS011;10593;48.398;10.698;2022-08-19T12:38:40;6.03;;;5.47;;
20865;SDS011;10593;48.398;10.698;2022-08-19T12:41:08;5.47;;;5.07;;
20865;SDS011;10593;48.398;10.698;2022-08-19T12:43:37;5.20;;;4.80;;
20865;SDS011;10593;48.398;10.698;2022-08-19T12:46:03;5.13;;;4.73;;
20865;SDS011;10593;48.398;10.698;2022-08-19T12:48:31;5.90;;;5.40;;
20865;SDS011;10593;48.398;10.698;2022-08-19T12:50:58;5.93;;;5.43;;
20865;SDS011;10593;48.398;10.698;2022-08-19T12:53:24;6.00;;;5.57;;
20865;SDS011;10593;48.398;10.698;2022-08-19T12:55:56;6.93;;;6.33;;
20865;SDS011;10593;48.398;10.698;2022-08-19T12:58:24;7.80;;;7.10;;
20865;SDS011;10593;48.398;10.698;2022-08-19T13:00:51;6.93;;;6.33;;
20865;SDS011;10593;48.398;10.698;2022-08-19T13:03:17;7.17;;;6.57;;
20865;SDS011;10593;48.398;10.698;2022-08-19T13:05:42;7.73;;;7.07;;
20865;SDS011;10593;48.398;10.698;2022-08-19T13:08:08;8.10;;;7.30;;
20865;SDS011;10593;48.398;10.698;2022-08-19T13:10:34;7.80;;;7.20;;
20865;SDS011;10593;48.398;10.698;2022-08-19T13:13:05;7.37;;;6.77;;
20865;SDS011;10593;48.398;10.698;2022-08-19T13:15:35;8.37;;;7.57;;
20865;SDS011;10593;48.398;10.698;2022-08-19T13:18:05;7.43;;;6.83;;
20865;SDS011;10593;48.398;10.698;2022-08-19T13:20:34;8.43;;;7.73;;
20865;SDS011;10593;48.398;10.698;2022-08-19T13:23:02;8.80;;;8.00;;
20865;SDS011;10593;48.398;10.698;2022-08-19T13:25:29;8.23;;;7.53;;
20865;SDS011;10593;48.398;10.698;2022-08-19T13:27:55;9.60;;;8.80;;
20865;SDS011;10593;48.398;10.698;2022-08-19T13:30:21;9.13;;;8.37;;
20865;SDS011;10593;48.398;10.698;2022-08-19T13:33:06;8.63;;;7.83;;
20865;SDS011;10593;48.398;10.698;2022-08-19T13:35:41;8.70;;;8.00;;
20865;SDS011;10593;48.398;10.698;2022-08-19T13:38:16;8.47;;;7.77;;
20865;SDS011;10593;48.398;10.698;2022-08-19T13:40:45;8.47;;;7.73;;
20865;SDS011;10593;48.398;10.698;2022-08-19T13:43:15;9.23;;;8.43;;
20865;SDS011;10593;48.398;10.698;2022-08-19T13:45:42;9.60;;;8.70;;
20865;SDS011;10593;48.398;10.698;2022-08-19T13:48:08;8.77;;;8.07;;
20865;SDS011;10593;48.398;10.698;2022-08-19T13:50:37;8.20;;;7.50;;
20865;SDS011;10593;48.398;10.698;2022-08-19T13:53:07;8.50;;;7.80;;
20865;SDS011;10593;48.398;10.698;2022-08-19T13:55:37;7.90;;;7.30;;
20865;SDS011;10593;48.398;10.698;2022-08-19T13:58:08;7.90;;;7.30;;
20865;SDS011;10593;48.398;10.698;2022-08-19T14:00:38;7.87;;;7.17;;
20865;SDS011;10593;48.398;10.698;2022-08-19T14:03:07;8.57;;;7.87;;
20865;SDS011;10593;48.398;10.698;2022-08-19T14:05:33;7.67;;;7.07;;
20865;SDS011;10593;48.398;10.698;2022-08-19T14:08:00;8.07;;;7.47;;
20865;SDS011;10593;48.398;10.698;2022-08-19T14:10:26;8.60;;;7.90;;
20865;SDS011;10593;48.398;10.698;2022-08-19T14:12:54;8.47;;;7.77;;
20865;SDS011;10593;48.398;10.698;2022-08-19T14:15:23;7.87;;;7.23;;
20865;SDS011;10593;48.398;10.698;2022-08-19T14:17:49;8.00;;;7.40;;
20865;SDS011;10593;48.398;10.698;2022-08-19T14:20:16;7.97;;;7.27;;
20865;SDS011;10593;48.398;10.698;2022-08-19T14:22:43;7.90;;;7.20;;
20865;SDS011;10593;48.398;10.698;2022-08-19T14:25:15;7.30;;;6.70;;
20865;SDS011;10593;48.398;10.698;2022-08-19T14:27:45;7.80;;;7.20;;
20865;SDS011;10593;48.398;10.698;2022-08-19T14:30:12;8.07;;;7.40;;
20865;SDS011;10593;48.398;10.698;2022-08-19T14:32:41;7.10;;;6.60;;
20865;SDS011;10593;48.398;10.698;2022-08-19T14:35:09;7.13;;;6.53;;
20865;SDS011;10593;48.398;10.698;2022-08-19T14:37:37;9.27;;;6.60;;
20865;SDS011;10593;48.398;10.698;2022-08-19T14:40:04;7.17;;;6.57;;
20865;SDS011;10593;48.398;10.698;2022-08-19T14:42:30;6.73;;;6.13;;
20865;SDS011;10593;48.398;10.698;2022-08-19T14:44:59;6.70;;;6.13;;
20865;SDS011;10593;48.398;10.698;2022-08-19T14:47:26;6.33;;;5.83;;
20865;SDS011;10593;48.398;10.698;2022-08-19T14:49:52;6.43;;;5.93;;
20865;SDS011;10593;48.398;10.698;2022-08-19T14:52:19;6.00;;;5.60;;
20865;SDS011;10593;48.398;10.698;2022-08-19T14:54:45;5.80;;;5.33;;
20865;SDS011;10593;48.398;10.698;2022-08-19T14:57:11;5.40;;;5.00;;
20865;SDS011;10593;48.398;10.698;2022-08-19T14:59:43;5.20;;;4.80;;